sensor_id;sensor_type;location;lat;lon;timestamp;temperature;humidity
46458;DHT22;32155;54.076;12.092;2022-11-20T00:02:27;3.00;99.90
46458;DHT22;32155;54.076;12.092;2022-11-20T00:04:55;3.10;99.90
46458;DHT22;32155;54.076;12.092;2022-11-20T00:07:20;3.00;99.90
46458;DHT22;32155;54.076;12.092;2022-11-20T00:09:46;2.90;99.90
46458;DHT22;32155;54.076;12.092;2022-11-20T00:12:11;2.90;99.90
46458;DHT22;32155;54.076;12.092;2022-11-20T00:14:39;3.00;99.90
46458;DHT22;32155;54.076;12.092;2022-11-20T00:17:06;2.90;99.90
46458;DHT22;32155;54.076;12.092;2022-11-20T00:19:32;2.90;99.90
46458;DHT22;32155;54.076;12.092;2022-11-20T00:22:01;2.80;99.90
46458;DHT22;32155;54.076;12.092;2022-11-20T00:24:35;2.80;99.90
46458;DHT22;32155;54.076;12.092;2022-11-20T00:27:03;2.80;99.90
46458;DHT22;32155;54.076;12.092;2022-11-20T00:29:28;2.80;99.90
46458;DHT22;32155;54.076;12.092;2022-11-20T00:31:54;2.90;99.90
46458;DHT22;32155;54.076;12.092;2022-11-20T00:34:19;2.80;99.90
46458;DHT22;32155;54.076;12.092;2022-11-20T00:36:47;2.90;99.90
46458;DHT22;32155;54.076;12.092;2022-11-20T00:39:16;3.00;99.90
46458;DHT22;32155;54.076;12.092;2022-11-20T00:41:41;3.10;99.90
46458;DHT22;32155;54.076;12.092;2022-11-20T00:44:09;3.10;99.90
46458;DHT22;32155;54.076;12.092;2022-11-20T00:46:35;3.10;99.90
46458;DHT22;32155;54.076;12.092;2022-11-20T00:49:04;3.10;99.90
46458;DHT22;32155;54.076;12.092;2022-11-20T00:51:32;3.10;99.90
46458;DHT22;32155;54.076;12.092;2022-11-20T00:54:00;3.10;99.90
46458;DHT22;32155;54.076;12.092;2022-11-20T00:56:27;3.10;99.90
46458;DHT22;32155;54.076;12.092;2022-11-20T00:58:59;3.00;99.90
46458;DHT22;32155;54.076;12.092;2022-11-20T01:01:26;3.00;99.90
46458;DHT22;32155;54.076;12.092;2022-11-20T01:03:54;2.90;99.90
46458;DHT22;32155;54.076;12.092;2022-11-20T01:06:20;2.90;99.90
46458;DHT22;32155;54.076;12.092;2022-11-20T01:08:46;2.90;99.90
46458;DHT22;32155;54.076;12.092;2022-11-20T01:11:14;3.00;99.90
46458;DHT22;32155;54.076;12.092;2022-11-20T01:13:40;3.30;99.90
46458;DHT22;32155;54.076;12.092;2022-11-20T01:18:34;3.30;99.90
46458;DHT22;32155;54.076;12.092;2022-11-20T01:21:01;3.30;99.90
46458;DHT22;32155;54.076;12.092;2022-11-20T01:23:34;3.30;99.90
46458;DHT22;32155;54.076;12.092;2022-11-20T01:26:02;3.30;99.90
46458;DHT22;32155;54.076;12.092;2022-11-20T01:28:28;3.20;99.90
46458;DHT22;32155;54.076;12.092;2022-11-20T01:30:54;3.20;99.90
46458;DHT22;32155;54.076;12.092;2022-11-20T01:33:22;3.20;99.90
46458;DHT22;32155;54.076;12.092;2022-11-20T01:36:03;3.10;99.90
46458;DHT22;32155;54.076;12.092;2022-11-20T01:38:37;3.00;99.90
46458;DHT22;32155;54.076;12.092;2022-11-20T01:41:03;3.10;99.90
46458;DHT22;32155;54.076;12.092;2022-11-20T01:43:29;3.00;99.90
46458;DHT22;32155;54.076;12.092;2022-11-20T01:46:00;3.00;99.90
46458;DHT22;32155;54.076;12.092;2022-11-20T01:48:40;3.00;99.90
46458;DHT22;32155;54.076;12.092;2022-11-20T01:51:10;2.90;99.90
46458;DHT22;32155;54.076;12.092;2022-11-20T01:53:38;2.90;99.90
46458;DHT22;32155;54.076;12.092;2022-11-20T01:56:06;3.00;99.90
46458;DHT22;32155;54.076;12.092;2022-11-20T01:58:37;3.10;99.90
46458;DHT22;32155;54.076;12.092;2022-11-20T02:01:04;3.00;99.90
46458;DHT22;32155;54.076;12.092;2022-11-20T02:03:29;2.90;99.90
46458;DHT22;32155;54.076;12.092;2022-11-20T02:06:29;2.70;99.90
46458;DHT22;32155;54.076;12.092;2022-11-20T02:08:48;2.70;99.90
46458;DHT22;32155;54.076;12.092;2022-11-20T02:11:13;2.90;99.90
46458;DHT22;32155;54.076;12.092;2022-11-20T02:13:39;3.00;99.90
46458;DHT22;32155;54.076;12.092;2022-11-20T02:16:15;2.90;99.90
46458;DHT22;32155;54.076;12.092;2022-11-20T02:18:41;2.90;99.90
46458;DHT22;32155;54.076;12.092;2022-11-20T02:23:39;2.80;99.90
46458;DHT22;32155;54.076;12.092;2022-11-20T02:26:11;2.70;99.90
46458;DHT22;32155;54.076;12.092;2022-11-20T02:31:13;2.40;99.90
46458;DHT22;32155;54.076;12.092;2022-11-20T02:33:39;2.40;99.90
46458;DHT22;32155;54.076;12.092;2022-11-20T02:36:04;2.60;99.90
46458;DHT22;32155;54.076;12.092;2022-11-20T02:38:30;2.50;99.90
46458;DHT22;32155;54.076;12.092;2022-11-20T02:40:59;2.60;99.90
46458;DHT22;32155;54.076;12.092;2022-11-20T02:43:25;2.70;99.90
46458;DHT22;32155;54.076;12.092;2022-11-20T02:45:50;2.70;99.90
46458;DHT22;32155;54.076;12.092;2022-11-20T02:48:16;2.70;99.90
46458;DHT22;32155;54.076;12.092;2022-11-20T02:50:41;2.60;99.90
46458;DHT22;32155;54.076;12.092;2022-11-20T02:53:08;2.50;99.90
46458;DHT22;32155;54.076;12.092;2022-11-20T02:55:33;2.60;99.90
46458;DHT22;32155;54.076;12.092;2022-11-20T02:57:59;2.50;99.90
46458;DHT22;32155;54.076;12.092;2022-11-20T03:00:24;2.50;99.90
46458;DHT22;32155;54.076;12.092;2022-11-20T03:02:50;2.50;99.90
46458;DHT22;32155;54.076;12.092;2022-11-20T03:05:18;2.60;99.90
46458;DHT22;32155;54.076;12.092;2022-11-20T03:07:46;2.70;99.90
46458;DHT22;32155;54.076;12.092;2022-11-20T03:10:11;2.70;99.90
46458;DHT22;32155;54.076;12.092;2022-11-20T03:12:37;2.50;99.90
46458;DHT22;32155;54.076;12.092;2022-11-20T03:15:02;2.50;99.90
46458;DHT22;32155;54.076;12.092;2022-11-20T03:17:28;2.50;99.90
46458;DHT22;32155;54.076;12.092;2022-11-20T03:19:56;2.50;99.90
46458;DHT22;32155;54.076;12.092;2022-11-20T03:22:21;2.40;99.90
46458;DHT22;32155;54.076;12.092;2022-11-20T03:24:47;2.30;99.90
46458;DHT22;32155;54.076;12.092;2022-11-20T03:27:12;2.30;99.90
46458;DHT22;32155;54.076;12.092;2022-11-20T03:29:38;2.50;99.90
46458;DHT22;32155;54.076;12.092;2022-11-20T03:32:04;2.50;99.90
46458;DHT22;32155;54.076;12.092;2022-11-20T03:34:29;2.40;99.90
46458;DHT22;32155;54.076;12.092;2022-11-20T03:36:55;2.50;99.90
46458;DHT22;32155;54.076;12.092;2022-11-20T03:39:20;2.50;99.90
46458;DHT22;32155;54.076;12.092;2022-11-20T03:41:46;2.60;99.90
46458;DHT22;32155;54.076;12.092;2022-11-20T03:44:11;2.50;99.90
46458;DHT22;32155;54.076;12.092;2022-11-20T03:46:37;2.50;99.90
46458;DHT22;32155;54.076;12.092;2022-11-20T03:49:03;2.50;99.90
46458;DHT22;32155;54.076;12.092;2022-11-20T03:51:29;2.30;99.90
46458;DHT22;32155;54.076;12.092;2022-11-20T03:53:56;2.20;99.90
46458;DHT22;32155;54.076;12.092;2022-11-20T03:56:28;2.20;99.90
46458;DHT22;32155;54.076;12.092;2022-11-20T03:58:54;2.20;99.90
46458;DHT22;32155;54.076;12.092;2022-11-20T04:01:21;2.10;99.90
46458;DHT22;32155;54.076;12.092;2022-11-20T04:03:47;2.10;99.90
46458;DHT22;32155;54.076;12.092;2022-11-20T04:06:17;2.20;99.90
46458;DHT22;32155;54.076;12.092;2022-11-20T04:08:43;2.20;99.90
46458;DHT22;32155;54.076;12.092;2022-11-20T04:13:34;2.20;99.90
46458;DHT22;32155;54.076;12.092;2022-11-20T04:15:59;2.30;99.90
46458;DHT22;32155;54.076;12.092;2022-11-20T04:18:25;2.50;99.90
46458;DHT22;32155;54.076;12.092;2022-11-20T04:20:50;2.40;99.90
46458;DHT22;32155;54.076;12.092;2022-11-20T04:23:16;2.50;99.90
46458;DHT22;32155;54.076;12.092;2022-11-20T04:25:41;2.40;99.90
46458;DHT22;32155;54.076;12.092;2022-11-20T04:28:09;2.40;99.90
46458;DHT22;32155;54.076;12.092;2022-11-20T04:30:35;2.40;99.90
46458;DHT22;32155;54.076;12.092;2022-11-20T04:33:00;2.40;99.90
46458;DHT22;32155;54.076;12.092;2022-11-20T04:35:26;2.40;99.90
46458;DHT22;32155;54.076;12.092;2022-11-20T04:37:51;2.30;99.90
46458;DHT22;32155;54.076;12.092;2022-11-20T04:40:17;2.30;99.90
46458;DHT22;32155;54.076;12.092;2022-11-20T04:42:45;2.30;99.90
46458;DHT22;32155;54.076;12.092;2022-11-20T04:45:10;2.30;99.90
46458;DHT22;32155;54.076;12.092;2022-11-20T04:47:36;2.10;99.90
46458;DHT22;32155;54.076;12.092;2022-11-20T04:50:03;2.20;99.90
46458;DHT22;32155;54.076;12.092;2022-11-20T04:52:31;2.10;99.90
46458;DHT22;32155;54.076;12.092;2022-11-20T04:54:57;2.20;99.90
46458;DHT22;32155;54.076;12.092;2022-11-20T04:57:22;2.20;99.90
46458;DHT22;32155;54.076;12.092;2022-11-20T04:59:48;2.10;99.90
46458;DHT22;32155;54.076;12.092;2022-11-20T05:02:13;2.10;99.90
46458;DHT22;32155;54.076;12.092;2022-11-20T05:04:39;2.10;99.90
46458;DHT22;32155;54.076;12.092;2022-11-20T05:07:04;2.00;99.90
46458;DHT22;32155;54.076;12.092;2022-11-20T05:09:35;2.00;99.90
46458;DHT22;32155;54.076;12.092;2022-11-20T05:12:00;2.00;99.90
46458;DHT22;32155;54.076;12.092;2022-11-20T05:14:26;2.00;99.90
46458;DHT22;32155;54.076;12.092;2022-11-20T05:16:51;2.00;99.90
46458;DHT22;32155;54.076;12.092;2022-11-20T05:19:17;2.00;99.90
46458;DHT22;32155;54.076;12.092;2022-11-20T05:21:42;1.80;99.90
46458;DHT22;32155;54.076;12.092;2022-11-20T05:24:08;1.80;99.90
46458;DHT22;32155;54.076;12.092;2022-11-20T05:26:33;1.80;99.90
46458;DHT22;32155;54.076;12.092;2022-11-20T05:28:59;2.00;99.90
46458;DHT22;32155;54.076;12.092;2022-11-20T05:31:25;2.00;99.90
46458;DHT22;32155;54.076;12.092;2022-11-20T05:33:50;1.80;99.90
46458;DHT22;32155;54.076;12.092;2022-11-20T05:36:16;1.70;99.90
46458;DHT22;32155;54.076;12.092;2022-11-20T05:38:42;1.60;99.90
46458;DHT22;32155;54.076;12.092;2022-11-20T05:41:11;1.80;99.90
46458;DHT22;32155;54.076;12.092;2022-11-20T05:43:38;1.90;99.90
46458;DHT22;32155;54.076;12.092;2022-11-20T05:46:04;1.80;99.90
46458;DHT22;32155;54.076;12.092;2022-11-20T05:48:30;1.90;99.90
46458;DHT22;32155;54.076;12.092;2022-11-20T05:50:59;1.80;99.90
46458;DHT22;32155;54.076;12.092;2022-11-20T05:53:25;1.70;99.90
46458;DHT22;32155;54.076;12.092;2022-11-20T05:58:29;1.80;99.90
46458;DHT22;32155;54.076;12.092;2022-11-20T06:00:54;1.80;99.90
46458;DHT22;32155;54.076;12.092;2022-11-20T06:03:23;1.80;99.90
46458;DHT22;32155;54.076;12.092;2022-11-20T06:05:49;1.90;99.90
46458;DHT22;32155;54.076;12.092;2022-11-20T06:08:17;1.80;99.90
46458;DHT22;32155;54.076;12.092;2022-11-20T06:10:42;1.70;99.90
46458;DHT22;32155;54.076;12.092;2022-11-20T06:13:08;1.60;99.90
46458;DHT22;32155;54.076;12.092;2022-11-20T06:15:33;1.60;99.90
46458;DHT22;32155;54.076;12.092;2022-11-20T06:17:59;1.70;99.90
46458;DHT22;32155;54.076;12.092;2022-11-20T06:20:24;1.70;99.90
46458;DHT22;32155;54.076;12.092;2022-11-20T06:22:50;1.60;99.90
46458;DHT22;32155;54.076;12.092;2022-11-20T06:25:15;1.60;99.90
46458;DHT22;32155;54.076;12.092;2022-11-20T06:27:41;1.60;99.90
46458;DHT22;32155;54.076;12.092;2022-11-20T06:30:06;1.50;99.90
46458;DHT22;32155;54.076;12.092;2022-11-20T06:32:32;1.60;99.90
46458;DHT22;32155;54.076;12.092;2022-11-20T06:34:58;1.50;99.90
46458;DHT22;32155;54.076;12.092;2022-11-20T06:37:23;1.40;99.90
46458;DHT22;32155;54.076;12.092;2022-11-20T06:39:49;1.40;99.90
46458;DHT22;32155;54.076;12.092;2022-11-20T06:42:15;1.30;99.90
46458;DHT22;32155;54.076;12.092;2022-11-20T06:44:43;1.30;99.90
46458;DHT22;32155;54.076;12.092;2022-11-20T06:47:09;1.30;99.90
46458;DHT22;32155;54.076;12.092;2022-11-20T06:49:34;1.30;99.90
46458;DHT22;32155;54.076;12.092;2022-11-20T06:52:02;1.30;99.90
46458;DHT22;32155;54.076;12.092;2022-11-20T06:54:27;1.30;99.90
46458;DHT22;32155;54.076;12.092;2022-11-20T06:56:53;1.40;99.90
46458;DHT22;32155;54.076;12.092;2022-11-20T06:59:18;1.40;99.90
46458;DHT22;32155;54.076;12.092;2022-11-20T07:01:44;1.40;99.90
46458;DHT22;32155;54.076;12.092;2022-11-20T07:04:12;1.50;99.90
46458;DHT22;32155;54.076;12.092;2022-11-20T07:06:38;1.50;99.90
46458;DHT22;32155;54.076;12.092;2022-11-20T07:09:06;1.70;99.90
46458;DHT22;32155;54.076;12.092;2022-11-20T07:11:34;1.80;99.90
46458;DHT22;32155;54.076;12.092;2022-11-20T07:13:59;1.70;99.90
46458;DHT22;32155;54.076;12.092;2022-11-20T07:16:25;1.70;99.90
46458;DHT22;32155;54.076;12.092;2022-11-20T07:18:50;1.90;99.90
46458;DHT22;32155;54.076;12.092;2022-11-20T07:21:16;1.60;99.90
46458;DHT22;32155;54.076;12.092;2022-11-20T07:23:41;1.70;99.90
46458;DHT22;32155;54.076;12.092;2022-11-20T07:26:09;1.70;99.90
46458;DHT22;32155;54.076;12.092;2022-11-20T07:28:35;1.70;99.90
46458;DHT22;32155;54.076;12.092;2022-11-20T07:31:03;1.90;99.90
46458;DHT22;32155;54.076;12.092;2022-11-20T07:33:30;1.90;99.90
46458;DHT22;32155;54.076;12.092;2022-11-20T07:35:55;1.90;99.90
46458;DHT22;32155;54.076;12.092;2022-11-20T07:38:21;1.90;99.90
46458;DHT22;32155;54.076;12.092;2022-11-20T07:40:46;2.00;99.90
46458;DHT22;32155;54.076;12.092;2022-11-20T07:43:12;2.00;99.90
46458;DHT22;32155;54.076;12.092;2022-11-20T07:45:40;2.00;99.90
46458;DHT22;32155;54.076;12.092;2022-11-20T07:48:05;2.10;99.90
46458;DHT22;32155;54.076;12.092;2022-11-20T07:50:31;2.10;99.90
46458;DHT22;32155;54.076;12.092;2022-11-20T07:53:00;2.20;99.90
46458;DHT22;32155;54.076;12.092;2022-11-20T07:55:25;2.20;99.90
46458;DHT22;32155;54.076;12.092;2022-11-20T07:57:55;2.30;99.90
46458;DHT22;32155;54.076;12.092;2022-11-20T08:00:21;2.40;99.90
46458;DHT22;32155;54.076;12.092;2022-11-20T08:02:46;2.50;99.90
46458;DHT22;32155;54.076;12.092;2022-11-20T08:05:12;2.50;99.90
46458;DHT22;32155;54.076;12.092;2022-11-20T08:07:41;2.60;99.90
46458;DHT22;32155;54.076;12.092;2022-11-20T08:10:12;2.60;99.90
46458;DHT22;32155;54.076;12.092;2022-11-20T08:12:45;2.70;99.90
46458;DHT22;32155;54.076;12.092;2022-11-20T08:15:30;2.80;99.90
46458;DHT22;32155;54.076;12.092;2022-11-20T08:17:59;2.90;99.90
46458;DHT22;32155;54.076;12.092;2022-11-20T08:20:25;3.10;99.90
46458;DHT22;32155;54.076;12.092;2022-11-20T08:22:50;3.20;99.90
46458;DHT22;32155;54.076;12.092;2022-11-20T08:25:18;3.30;99.90
46458;DHT22;32155;54.076;12.092;2022-11-20T08:27:46;3.40;99.90
46458;DHT22;32155;54.076;12.092;2022-11-20T08:30:12;3.50;99.90
46458;DHT22;32155;54.076;12.092;2022-11-20T08:32:40;3.60;99.90
46458;DHT22;32155;54.076;12.092;2022-11-20T08:35:08;3.80;99.90
46458;DHT22;32155;54.076;12.092;2022-11-20T08:37:33;4.00;99.90
46458;DHT22;32155;54.076;12.092;2022-11-20T08:39:59;4.30;99.90
46458;DHT22;32155;54.076;12.092;2022-11-20T08:42:24;4.40;99.90
46458;DHT22;32155;54.076;12.092;2022-11-20T08:44:52;4.50;99.90
46458;DHT22;32155;54.076;12.092;2022-11-20T08:47:18;4.70;99.90
46458;DHT22;32155;54.076;12.092;2022-11-20T08:49:43;4.90;99.90
46458;DHT22;32155;54.076;12.092;2022-11-20T08:52:09;5.10;99.90
46458;DHT22;32155;54.076;12.092;2022-11-20T08:54:34;5.20;99.90
46458;DHT22;32155;54.076;12.092;2022-11-20T08:57:00;5.20;99.90
46458;DHT22;32155;54.076;12.092;2022-11-20T08:59:25;5.20;99.90
46458;DHT22;32155;54.076;12.092;2022-11-20T09:01:51;5.20;99.90
46458;DHT22;32155;54.076;12.092;2022-11-20T09:04:16;5.30;99.90
46458;DHT22;32155;54.076;12.092;2022-11-20T09:06:42;6.20;99.90
46458;DHT22;32155;54.076;12.092;2022-11-20T09:09:07;7.10;99.90
46458;DHT22;32155;54.076;12.092;2022-11-20T09:11:34;7.80;99.90
46458;DHT22;32155;54.076;12.092;2022-11-20T09:13:59;8.70;99.90
46458;DHT22;32155;54.076;12.092;2022-11-20T09:16:25;9.70;99.90
46458;DHT22;32155;54.076;12.092;2022-11-20T09:18:51;9.50;99.90
46458;DHT22;32155;54.076;12.092;2022-11-20T09:21:16;8.40;99.90
46458;DHT22;32155;54.076;12.092;2022-11-20T09:23:42;7.60;99.90
46458;DHT22;32155;54.076;12.092;2022-11-20T09:26:11;7.10;99.90
46458;DHT22;32155;54.076;12.092;2022-11-20T09:28:37;8.70;99.90
46458;DHT22;32155;54.076;12.092;2022-11-20T09:31:09;8.10;99.90
46458;DHT22;32155;54.076;12.092;2022-11-20T09:33:43;6.80;99.90
46458;DHT22;32155;54.076;12.092;2022-11-20T09:36:08;5.80;99.90
46458;DHT22;32155;54.076;12.092;2022-11-20T09:38:34;5.30;99.90
46458;DHT22;32155;54.076;12.092;2022-11-20T09:41:04;5.20;99.90
46458;DHT22;32155;54.076;12.092;2022-11-20T09:46:20;5.20;99.90
46458;DHT22;32155;54.076;12.092;2022-11-20T09:56:26;7.50;99.90
46458;DHT22;32155;54.076;12.092;2022-11-20T09:58:57;8.30;99.90
46458;DHT22;32155;54.076;12.092;2022-11-20T10:01:29;9.00;99.90
46458;DHT22;32155;54.076;12.092;2022-11-20T10:11:29;7.40;99.90
46458;DHT22;32155;54.076;12.092;2022-11-20T10:22:14;12.30;99.90
46458;DHT22;32155;54.076;12.092;2022-11-20T10:30:11;9.30;99.90
46458;DHT22;32155;54.076;12.092;2022-11-20T10:32:40;7.60;99.90
46458;DHT22;32155;54.076;12.092;2022-11-20T10:37:40;6.30;99.90
46458;DHT22;32155;54.076;12.092;2022-11-20T10:42:53;5.80;99.90
46458;DHT22;32155;54.076;12.092;2022-11-20T10:47:50;5.50;99.90
46458;DHT22;32155;54.076;12.092;2022-11-20T10:50:18;5.30;99.90
46458;DHT22;32155;54.076;12.092;2022-11-20T10:55:33;5.30;99.90
46458;DHT22;32155;54.076;12.092;2022-11-20T11:00:50;5.70;99.90
46458;DHT22;32155;54.076;12.092;2022-11-20T11:03:23;9.00;99.90
46458;DHT22;32155;54.076;12.092;2022-11-20T11:05:54;10.30;99.90
46458;DHT22;32155;54.076;12.092;2022-11-20T11:08:20;12.90;99.90
46458;DHT22;32155;54.076;12.092;2022-11-20T11:11:00;13.70;99.90
46458;DHT22;32155;54.076;12.092;2022-11-20T11:13:30;12.60;99.90
46458;DHT22;32155;54.076;12.092;2022-11-20T11:15:56;11.80;99.90
46458;DHT22;32155;54.076;12.092;2022-11-20T11:18:32;10.10;99.90
46458;DHT22;32155;54.076;12.092;2022-11-20T11:21:00;8.70;99.90
46458;DHT22;32155;54.076;12.092;2022-11-20T11:23:29;8.00;99.90
46458;DHT22;32155;54.076;12.092;2022-11-20T11:25:56;6.60;99.90
46458;DHT22;32155;54.076;12.092;2022-11-20T11:28:23;5.70;99.90
46458;DHT22;32155;54.076;12.092;2022-11-20T11:30:53;6.30;99.90
46458;DHT22;32155;54.076;12.092;2022-11-20T11:33:22;6.50;99.90
46458;DHT22;32155;54.076;12.092;2022-11-20T11:35:52;6.10;99.90
46458;DHT22;32155;54.076;12.092;2022-11-20T11:38:38;5.60;99.90
46458;DHT22;32155;54.076;12.092;2022-11-20T11:41:04;5.70;99.90
46458;DHT22;32155;54.076;12.092;2022-11-20T11:43:34;6.00;99.90
46458;DHT22;32155;54.076;12.092;2022-11-20T11:46:33;5.90;99.90
46458;DHT22;32155;54.076;12.092;2022-11-20T11:54:13;5.20;99.90
46458;DHT22;32155;54.076;12.092;2022-11-20T11:56:41;5.10;99.90
46458;DHT22;32155;54.076;12.092;2022-11-20T11:59:09;5.10;99.90
46458;DHT22;32155;54.076;12.092;2022-11-20T12:01:47;4.90;99.90
46458;DHT22;32155;54.076;12.092;2022-11-20T12:06:39;5.00;99.90
46458;DHT22;32155;54.076;12.092;2022-11-20T12:09:08;5.00;99.90
46458;DHT22;32155;54.076;12.092;2022-11-20T12:11:58;5.00;99.90
46458;DHT22;32155;54.076;12.092;2022-11-20T12:14:43;5.20;99.90
46458;DHT22;32155;54.076;12.092;2022-11-20T12:17:15;5.40;99.90
46458;DHT22;32155;54.076;12.092;2022-11-20T12:19:41;5.40;99.90
46458;DHT22;32155;54.076;12.092;2022-11-20T12:27:44;4.90;99.90
46458;DHT22;32155;54.076;12.092;2022-11-20T12:30:17;4.90;99.90
46458;DHT22;32155;54.076;12.092;2022-11-20T12:38:06;4.30;99.90
46458;DHT22;32155;54.076;12.092;2022-11-20T12:43:21;4.20;99.90
46458;DHT22;32155;54.076;12.092;2022-11-20T12:54:12;5.30;99.90
46458;DHT22;32155;54.076;12.092;2022-11-20T13:01:58;5.80;99.90
46458;DHT22;32155;54.076;12.092;2022-11-20T13:05:11;6.00;99.90
46458;DHT22;32155;54.076;12.092;2022-11-20T13:07:16;5.90;99.90
46458;DHT22;32155;54.076;12.092;2022-11-20T13:09:46;5.80;99.90
46458;DHT22;32155;54.076;12.092;2022-11-20T13:17:16;5.50;99.90
46458;DHT22;32155;54.076;12.092;2022-11-20T13:19:53;5.40;99.90
46458;DHT22;32155;54.076;12.092;2022-11-20T13:22:27;5.20;99.90
46458;DHT22;32155;54.076;12.092;2022-11-20T13:24:56;5.10;99.90
46458;DHT22;32155;54.076;12.092;2022-11-20T13:27:23;4.90;99.90
46458;DHT22;32155;54.076;12.092;2022-11-20T13:32:49;4.60;99.90
46458;DHT22;32155;54.076;12.092;2022-11-20T13:35:26;4.60;99.90
46458;DHT22;32155;54.076;12.092;2022-11-20T16:30:01;1.30;99.90
46458;DHT22;32155;54.076;12.092;2022-11-20T16:55:43;1.70;99.90
46458;DHT22;32155;54.076;12.092;2022-11-20T16:58:39;1.70;99.90
46458;DHT22;32155;54.076;12.092;2022-11-20T17:01:50;1.70;99.90
46458;DHT22;32155;54.076;12.092;2022-11-20T17:07:35;1.70;99.90
46458;DHT22;32155;54.076;12.092;2022-11-20T17:10:20;1.70;99.90
46458;DHT22;32155;54.076;12.092;2022-11-20T17:22:30;1.60;99.90
46458;DHT22;32155;54.076;12.092;2022-11-20T17:28:33;1.70;99.90
46458;DHT22;32155;54.076;12.092;2022-11-20T17:44:08;0.90;99.90
46458;DHT22;32155;54.076;12.092;2022-11-20T17:50:09;1.10;99.90
46458;DHT22;32155;54.076;12.092;2022-11-20T21:07:33;0.40;99.90
46458;DHT22;32155;54.076;12.092;2022-11-20T21:10:19;0.30;99.90
46458;DHT22;32155;54.076;12.092;2022-11-20T21:19:15;0.30;99.90
46458;DHT22;32155;54.076;12.092;2022-11-20T21:21:56;0.40;99.90
46458;DHT22;32155;54.076;12.092;2022-11-20T21:24:32;0.30;99.90
46458;DHT22;32155;54.076;12.092;2022-11-20T22:05:42;0.30;99.90
46458;DHT22;32155;54.076;12.092;2022-11-20T22:08:04;0.30;99.90
46458;DHT22;32155;54.076;12.092;2022-11-20T22:27:24;0.40;99.90
46458;DHT22;32155;54.076;12.092;2022-11-20T22:30:02;0.60;99.90
46458;DHT22;32155;54.076;12.092;2022-11-20T22:32:55;0.50;99.90
46458;DHT22;32155;54.076;12.092;2022-11-20T22:38:31;0.30;99.90
46458;DHT22;32155;54.076;12.092;2022-11-20T22:44:35;0.20;99.90
46458;DHT22;32155;54.076;12.092;2022-11-20T22:47:19;0.30;99.90
46458;DHT22;32155;54.076;12.092;2022-11-20T22:49:48;0.50;99.90
46458;DHT22;32155;54.076;12.092;2022-11-20T22:52:29;0.50;99.90
46458;DHT22;32155;54.076;12.092;2022-11-20T22:55:01;0.40;99.90
46458;DHT22;32155;54.076;12.092;2022-11-20T22:57:41;0.40;99.90
46458;DHT22;32155;54.076;12.092;2022-11-20T23:00:38;0.30;99.90
46458;DHT22;32155;54.076;12.092;2022-11-20T23:16:12;0.40;99.90
46458;DHT22;32155;54.076;12.092;2022-11-20T23:19:02;0.30;99.90
46458;DHT22;32155;54.076;12.092;2022-11-20T23:21:34;0.30;99.90
46458;DHT22;32155;54.076;12.092;2022-11-20T23:24:22;0.20;99.90
46458;DHT22;32155;54.076;12.092;2022-11-20T23:27:31;0.20;99.90
